createdAt,value
2017-05-23T00:02:06.231Z,13.10
2017-05-23T00:04:34.192Z,12.70
2017-05-23T00:07:03.009Z,12.60
2017-05-23T00:09:29.880Z,12.60
2017-05-23T00:11:58.708Z,12.50
2017-05-23T00:14:25.592Z,12.50
2017-05-23T00:16:55.812Z,12.60
2017-05-23T00:19:23.755Z,12.80
2017-05-23T00:21:50.672Z,12.90
2017-05-23T00:24:17.560Z,13.10
2017-05-23T00:26:44.431Z,13.20
2017-05-23T00:29:13.360Z,13.20
2017-05-23T00:31:39.535Z,13.20
2017-05-23T00:34:09.516Z,13.30
2017-05-23T00:36:40.883Z,13.20
2017-05-23T00:39:11.299Z,13.00
2017-05-23T00:41:39.171Z,12.90
2017-05-23T00:44:06.059Z,12.80
2017-05-23T00:46:32.963Z,12.70
2017-05-23T00:48:59.779Z,12.70
2017-05-23T00:51:26.764Z,12.60
2017-05-23T00:53:55.699Z,12.80
2017-05-23T00:56:22.655Z,12.70
2017-05-23T00:58:49.507Z,12.80
2017-05-23T01:01:16.403Z,12.60
2017-05-23T01:03:43.400Z,12.50
2017-05-23T01:06:10.276Z,12.50
2017-05-23T01:08:37.088Z,12.40
2017-05-23T01:11:03.955Z,12.30
2017-05-23T01:13:30.770Z,12.30
2017-05-23T01:15:57.711Z,12.50
2017-05-23T01:18:24.603Z,12.50
2017-05-23T01:20:52.511Z,12.50
2017-05-23T01:23:22.507Z,12.50
2017-05-23T01:25:49.422Z,12.40
2017-05-23T01:28:16.251Z,12.20
2017-05-23T01:30:43.183Z,12.10
2017-05-23T01:33:11.022Z,12.00
2017-05-23T01:35:39.843Z,11.90
2017-05-23T01:38:07.762Z,12.00
2017-05-23T01:40:35.726Z,12.00
2017-05-23T01:43:03.518Z,12.00
2017-05-23T01:45:30.478Z,11.80
2017-05-23T01:47:58.399Z,11.90
2017-05-23T01:50:25.299Z,12.00
2017-05-23T01:52:55.135Z,12.20
2017-05-23T01:55:22.051Z,12.10
2017-05-23T01:57:50.039Z,12.10
2017-05-23T02:00:18.986Z,12.00
2017-05-23T02:02:45.938Z,11.90
2017-05-23T02:05:12.794Z,11.80
2017-05-23T02:07:39.638Z,11.70
2017-05-23T02:10:07.531Z,11.70
2017-05-23T02:12:35.470Z,11.80
2017-05-23T02:15:04.366Z,11.90
2017-05-23T02:17:31.338Z,12.00
2017-05-23T02:19:59.283Z,11.90
2017-05-23T02:22:26.166Z,11.80
2017-05-23T02:24:53.114Z,11.80
2017-05-23T02:27:36.930Z,11.70
2017-05-23T02:30:03.874Z,11.70
2017-05-23T02:32:30.726Z,11.60
2017-05-23T02:34:57.650Z,11.70
2017-05-23T02:37:26.564Z,11.80
2017-05-23T02:39:53.482Z,11.70
2017-05-23T02:42:20.438Z,11.60
2017-05-23T02:44:47.258Z,11.60
2017-05-23T02:47:14.106Z,11.60
2017-05-23T02:49:41.041Z,11.60
2017-05-23T02:52:11.578Z,11.80
2017-05-23T02:54:38.546Z,11.90
2017-05-23T02:57:05.478Z,11.80
2017-05-23T02:59:33.362Z,11.70
2017-05-23T03:02:00.341Z,11.60
2017-05-23T03:04:27.449Z,11.50
2017-05-23T03:06:54.377Z,11.40
2017-05-23T03:09:21.367Z,11.50
2017-05-23T03:11:48.294Z,11.50
2017-05-23T03:14:15.182Z,11.60
2017-05-23T03:16:42.049Z,11.50
2017-05-23T03:21:45.441Z,11.30
2017-05-23T03:24:12.277Z,11.30
2017-05-23T03:26:40.145Z,11.50
2017-05-23T03:29:06.978Z,11.70
2017-05-23T03:31:33.837Z,11.70
2017-05-23T03:34:00.713Z,11.80
2017-05-23T03:36:27.641Z,11.90
2017-05-23T03:38:54.585Z,11.90
2017-05-23T03:41:21.406Z,11.80
2017-05-23T03:43:48.246Z,11.80
2017-05-23T03:46:15.121Z,11.80
2017-05-23T03:48:41.918Z,11.70
2017-05-23T03:51:08.761Z,11.80
2017-05-23T03:53:35.726Z,11.90
2017-05-23T03:56:03.609Z,11.80
2017-05-23T03:58:30.417Z,11.80
2017-05-23T04:00:58.253Z,11.70
2017-05-23T04:03:26.977Z,11.80
2017-05-23T04:05:56.385Z,11.90
2017-05-23T04:08:23.449Z,11.90
2017-05-23T04:10:50.357Z,12.00
2017-05-23T04:13:17.198Z,11.90
2017-05-23T04:15:44.086Z,12.00
2017-05-23T04:18:11.017Z,12.10
2017-05-23T04:20:37.797Z,12.20
2017-05-23T04:23:04.710Z,12.40
2017-05-23T04:25:31.613Z,12.50
2017-05-23T04:27:58.457Z,12.60
2017-05-23T04:30:25.313Z,12.70
2017-05-23T04:32:52.116Z,12.80
2017-05-23T04:35:18.985Z,12.90
2017-05-23T04:37:45.857Z,12.90
2017-05-23T04:40:12.665Z,12.90
2017-05-23T04:42:39.504Z,13.00
2017-05-23T04:45:07.488Z,13.00
2017-05-23T04:47:34.341Z,13.10
2017-05-23T04:50:01.167Z,13.10
2017-05-23T04:52:28.009Z,13.10
2017-05-23T04:54:54.857Z,13.20
2017-05-23T04:59:58.293Z,13.30
2017-05-23T05:02:25.096Z,13.50
2017-05-23T05:04:51.940Z,13.60
2017-05-23T05:07:18.844Z,13.80
2017-05-23T05:09:45.716Z,13.90
2017-05-23T05:12:12.580Z,13.90
2017-05-23T05:14:40.452Z,13.80
2017-05-23T05:17:07.260Z,13.90
2017-05-23T05:19:34.052Z,14.00
2017-05-23T05:22:01.037Z,14.00
2017-05-23T05:24:28.029Z,14.00
2017-05-23T05:26:54.839Z,14.40
2017-05-23T05:29:21.691Z,14.50
2017-05-23T05:31:48.527Z,14.40
2017-05-23T05:34:15.373Z,14.60
2017-05-23T05:36:42.260Z,14.60
2017-05-23T05:39:09.160Z,14.50
2017-05-23T05:41:36.024Z,14.60
2017-05-23T05:44:02.916Z,14.60
2017-05-23T05:46:29.823Z,14.70
2017-05-23T05:48:56.723Z,14.70
2017-05-23T05:51:23.587Z,14.70
2017-05-23T05:53:50.479Z,14.90
2017-05-23T05:56:17.379Z,14.80
2017-05-23T05:58:44.232Z,14.70
2017-05-23T06:01:11.035Z,14.70
2017-05-23T06:03:37.871Z,14.80
2017-05-23T06:06:04.744Z,14.70
2017-05-23T06:08:31.555Z,14.80
2017-05-23T06:10:58.459Z,15.20
2017-05-23T06:13:31.555Z,15.40
2017-05-23T06:15:58.446Z,15.70
2017-05-23T06:18:25.271Z,15.90
2017-05-23T06:20:52.152Z,15.90
2017-05-23T06:23:18.988Z,16.10
2017-05-23T06:25:45.804Z,16.40
2017-05-23T06:28:12.632Z,16.20
2017-05-23T06:30:39.414Z,16.10
2017-05-23T06:33:06.195Z,16.20
2017-05-23T06:35:33.043Z,16.20
2017-05-23T06:37:59.847Z,16.30
2017-05-23T06:40:26.619Z,16.50
2017-05-23T06:42:53.443Z,16.60
2017-05-23T06:45:20.213Z,16.70
2017-05-23T06:47:47.007Z,16.80
2017-05-23T06:50:13.795Z,16.80
2017-05-23T06:52:40.591Z,16.90
2017-05-23T06:55:07.367Z,16.90
2017-05-23T06:57:34.158Z,17.00
2017-05-23T07:00:00.930Z,17.00
2017-05-23T07:02:27.667Z,17.20
2017-05-23T07:04:54.495Z,17.20
2017-05-23T07:07:21.271Z,17.40
2017-05-23T07:09:48.042Z,17.50
2017-05-23T07:12:14.872Z,17.60
2017-05-23T07:14:41.690Z,17.80
2017-05-23T07:17:08.471Z,17.80
2017-05-23T07:19:35.271Z,17.70
2017-05-23T07:22:02.047Z,17.80
2017-05-23T07:24:28.870Z,17.70
2017-05-23T07:26:55.663Z,17.80
2017-05-23T07:29:22.442Z,17.80
2017-05-23T07:31:49.247Z,17.80
2017-05-23T07:34:16.079Z,18.00
2017-05-23T07:36:42.838Z,18.10
2017-05-23T07:39:09.594Z,18.00
2017-05-23T07:41:36.459Z,18.00
2017-05-23T07:44:03.298Z,18.10
2017-05-23T07:46:30.078Z,18.10
2017-05-23T07:48:56.858Z,18.30
2017-05-23T07:51:23.634Z,18.50
2017-05-23T07:53:50.390Z,18.50
2017-05-23T07:56:17.174Z,18.70
2017-05-23T07:58:43.927Z,18.70
2017-05-23T08:01:10.710Z,18.90
2017-05-23T08:03:37.542Z,19.00
2017-05-23T08:06:04.362Z,19.30
2017-05-23T08:08:31.142Z,19.40
2017-05-23T08:10:57.899Z,19.70
2017-05-23T08:13:24.674Z,19.70
2017-05-23T08:15:51.482Z,19.60
2017-05-23T08:18:18.286Z,19.80
2017-05-23T08:20:45.058Z,20.10
2017-05-23T08:23:11.830Z,20.10
2017-05-23T08:25:38.634Z,20.30
2017-05-23T08:28:05.410Z,20.30
2017-05-23T08:30:32.186Z,20.50
2017-05-23T08:32:58.978Z,20.50
2017-05-23T08:35:25.785Z,20.70
2017-05-23T08:37:52.542Z,20.90
2017-05-23T08:40:19.334Z,20.90
2017-05-23T08:42:46.094Z,20.70
2017-05-23T08:45:12.878Z,20.80
2017-05-23T08:47:39.722Z,21.00
2017-05-23T08:50:06.501Z,21.00
2017-05-23T08:52:33.337Z,21.10
2017-05-23T08:55:00.200Z,21.00
2017-05-23T08:57:26.993Z,20.70
2017-05-23T08:59:53.766Z,20.90
2017-05-23T09:02:20.586Z,21.00
2017-05-23T09:04:47.338Z,21.10
2017-05-23T09:07:14.145Z,21.20
2017-05-23T09:09:40.941Z,21.10
2017-05-23T09:12:07.713Z,21.40
2017-05-23T09:14:34.489Z,21.70
2017-05-23T09:17:01.277Z,21.90
2017-05-23T09:19:28.090Z,21.90
2017-05-23T09:22:04.946Z,21.90
2017-05-23T09:24:31.732Z,22.10
2017-05-23T09:27:04.741Z,22.20
2017-05-23T09:29:31.501Z,22.00
2017-05-23T09:31:58.320Z,22.20
2017-05-23T09:34:25.098Z,21.80
2017-05-23T09:36:51.929Z,22.20
2017-05-23T09:39:18.717Z,22.10
2017-05-23T09:41:45.492Z,22.20
2017-05-23T09:44:12.296Z,22.30
2017-05-23T09:46:39.078Z,22.30
2017-05-23T09:49:05.909Z,22.50
2017-05-23T09:51:32.693Z,22.50
2017-05-23T09:53:59.477Z,22.50
2017-05-23T09:56:26.273Z,22.50
2017-05-23T09:58:53.061Z,22.70
2017-05-23T10:01:19.837Z,22.70
2017-05-23T10:03:46.623Z,22.70
2017-05-23T10:06:13.412Z,23.00
2017-05-23T10:08:40.215Z,23.20
2017-05-23T10:11:06.988Z,23.30
2017-05-23T10:13:33.768Z,23.30
2017-05-23T10:16:00.520Z,23.00
2017-05-23T10:18:27.344Z,23.00
2017-05-23T10:21:09.055Z,23.20
2017-05-23T10:23:35.855Z,23.40
2017-05-23T10:26:02.639Z,22.70
2017-05-23T10:28:29.495Z,22.80
2017-05-23T10:30:56.363Z,23.50
2017-05-23T10:33:23.145Z,23.70
2017-05-23T10:35:49.947Z,23.90
2017-05-23T10:38:16.796Z,23.60
2017-05-23T10:40:43.575Z,23.70
2017-05-23T10:43:10.346Z,23.80
2017-05-23T10:45:37.159Z,24.10
2017-05-23T10:48:03.962Z,24.00
2017-05-23T10:50:30.735Z,24.20
2017-05-23T10:52:57.515Z,23.80
2017-05-23T10:55:24.302Z,23.70
2017-05-23T10:57:51.095Z,23.90
2017-05-23T11:00:17.875Z,24.30
2017-05-23T11:02:44.654Z,24.40
2017-05-23T11:05:11.434Z,24.30
2017-05-23T11:07:38.234Z,24.50
2017-05-23T11:10:05.027Z,24.80
2017-05-23T11:12:31.814Z,24.90
2017-05-23T11:14:58.616Z,24.60
2017-05-23T11:17:25.430Z,24.40
2017-05-23T11:19:52.251Z,24.60
2017-05-23T11:22:19.051Z,24.50
2017-05-23T11:24:45.858Z,24.50
2017-05-23T11:27:12.638Z,24.60
2017-05-23T11:29:39.441Z,24.60
2017-05-23T11:32:06.234Z,24.80
2017-05-23T11:34:33.030Z,25.00
2017-05-23T11:37:01.906Z,25.10
2017-05-23T11:39:28.702Z,24.90
2017-05-23T11:41:55.486Z,24.70
2017-05-23T11:44:23.346Z,24.80
2017-05-23T11:46:50.149Z,25.20
2017-05-23T11:49:16.935Z,25.50
2017-05-23T11:51:43.813Z,25.60
2017-05-23T11:54:10.618Z,25.30
2017-05-23T11:56:37.418Z,25.40
2017-05-23T11:59:04.238Z,25.50
2017-05-23T12:01:31.037Z,24.90
2017-05-23T12:03:57.818Z,24.80
2017-05-23T12:06:24.658Z,25.30
2017-05-23T12:08:51.457Z,25.20
2017-05-23T12:11:18.265Z,25.80
2017-05-23T12:13:45.066Z,25.80
2017-05-23T12:16:11.890Z,25.80
2017-05-23T12:18:38.673Z,25.70
2017-05-23T12:21:05.525Z,25.90
2017-05-23T12:23:32.325Z,26.00
2017-05-23T12:25:59.149Z,26.10
2017-05-23T12:28:25.970Z,26.30
2017-05-23T12:30:52.773Z,26.30
2017-05-23T12:33:19.590Z,26.00
2017-05-23T12:35:46.386Z,26.40
2017-05-23T12:38:13.168Z,26.10
2017-05-23T12:40:41.029Z,25.90
2017-05-23T12:43:07.849Z,25.70
2017-05-23T12:45:34.661Z,25.80
2017-05-23T12:48:01.509Z,25.90
2017-05-23T12:50:28.305Z,25.50
2017-05-23T12:52:55.086Z,26.10
2017-05-23T12:55:21.901Z,26.10
2017-05-23T12:57:48.749Z,26.30
2017-05-23T13:00:15.548Z,26.10
2017-05-23T13:02:42.333Z,26.20
2017-05-23T13:05:09.185Z,26.20
2017-05-23T13:07:35.994Z,26.30
2017-05-23T13:10:02.804Z,26.10
2017-05-23T13:12:29.617Z,26.10
2017-05-23T13:14:56.417Z,26.10
2017-05-23T13:17:23.194Z,26.00
2017-05-23T13:19:50.017Z,25.80
2017-05-23T13:22:16.837Z,26.20
2017-05-23T13:24:43.633Z,25.90
2017-05-23T13:27:10.436Z,26.20
2017-05-23T13:29:37.233Z,26.50
2017-05-23T13:32:04.081Z,26.30
2017-05-23T13:34:30.876Z,25.70
2017-05-23T13:36:57.688Z,25.90
2017-05-23T13:39:24.485Z,25.80
2017-05-23T13:41:51.288Z,25.60
2017-05-23T13:44:18.088Z,25.80
2017-05-23T13:46:44.893Z,26.00
2017-05-23T13:49:12.698Z,26.30
2017-05-23T13:51:39.492Z,26.30
2017-05-23T13:54:06.284Z,26.40
2017-05-23T13:56:33.100Z,26.60
2017-05-23T13:58:59.897Z,26.80
2017-05-23T14:01:26.697Z,26.10
2017-05-23T14:03:53.500Z,25.60
2017-05-23T14:06:20.361Z,26.10
2017-05-23T14:08:47.148Z,26.20
2017-05-23T14:11:13.972Z,26.30
2017-05-23T14:13:41.752Z,26.30
2017-05-23T14:16:08.552Z,26.30
2017-05-23T14:18:35.345Z,26.20
2017-05-23T14:21:02.196Z,26.20
2017-05-23T14:23:29.020Z,26.30
2017-05-23T14:25:55.832Z,26.50
2017-05-23T14:28:22.628Z,26.30
2017-05-23T14:30:49.425Z,26.20
2017-05-23T14:33:16.256Z,26.30
2017-05-23T14:35:43.040Z,26.30
2017-05-23T14:38:09.840Z,26.10
2017-05-23T14:40:36.703Z,26.10
2017-05-23T14:43:03.532Z,25.80
2017-05-23T14:45:30.317Z,25.90
2017-05-23T14:47:57.112Z,26.10
2017-05-23T14:50:23.875Z,26.10
2017-05-23T14:52:50.663Z,25.90
2017-05-23T14:55:17.580Z,26.00
2017-05-23T14:57:44.372Z,25.90
2017-05-23T15:00:12.064Z,25.70
2017-05-23T15:02:38.896Z,25.80
2017-05-23T15:05:05.696Z,25.90
2017-05-23T15:07:32.519Z,26.10
2017-05-23T15:09:59.332Z,26.00
2017-05-23T15:12:26.117Z,25.80
2017-05-23T15:14:52.899Z,26.10
2017-05-23T15:17:20.751Z,26.10
2017-05-23T15:19:47.560Z,25.90
2017-05-23T15:22:14.475Z,25.90
2017-05-23T15:24:42.396Z,25.80
2017-05-23T15:27:09.216Z,25.70
2017-05-23T15:29:36.136Z,25.50
2017-05-23T15:32:03.015Z,25.50
2017-05-23T15:34:29.951Z,25.50
2017-05-23T15:36:56.820Z,25.50
2017-05-23T15:39:23.639Z,25.50
2017-05-23T15:41:50.487Z,25.40
2017-05-23T15:44:17.328Z,25.40
2017-05-23T15:46:44.209Z,25.50
2017-05-23T15:49:11.020Z,25.60
2017-05-23T15:51:37.831Z,25.40
2017-05-23T15:54:04.683Z,25.50
2017-05-23T15:56:32.583Z,25.50
2017-05-23T15:58:59.388Z,25.40
2017-05-23T16:01:27.295Z,25.60
2017-05-23T16:03:54.091Z,25.40
2017-05-23T16:06:20.894Z,25.20
2017-05-23T16:08:47.743Z,25.30
2017-05-23T16:11:14.631Z,25.10
2017-05-23T16:13:41.423Z,25.20
2017-05-23T16:16:08.207Z,25.10
2017-05-23T16:18:36.075Z,25.10
2017-05-23T16:21:02.907Z,25.10
2017-05-23T16:23:30.815Z,24.90
2017-05-23T16:25:57.619Z,25.00
2017-05-23T16:28:24.466Z,25.00
2017-05-23T16:30:52.314Z,24.90
2017-05-23T16:33:19.194Z,24.90
2017-05-23T16:35:46.038Z,24.80
2017-05-23T16:38:12.822Z,24.70
2017-05-23T16:40:39.702Z,24.70
2017-05-23T16:43:07.563Z,24.60
2017-05-23T16:45:34.419Z,24.70
2017-05-23T16:48:01.278Z,24.80
2017-05-23T16:50:28.278Z,24.80
2017-05-23T16:52:55.146Z,24.70
2017-05-23T16:55:21.970Z,24.60
2017-05-23T16:57:48.746Z,24.30
2017-05-23T17:00:15.570Z,24.30
2017-05-23T17:02:42.339Z,24.20
2017-05-23T17:05:09.138Z,24.20
2017-05-23T17:07:35.970Z,24.10
2017-05-23T17:10:02.790Z,23.80
2017-05-23T17:12:44.654Z,23.80
2017-05-23T17:15:12.482Z,23.80
2017-05-23T17:17:39.335Z,23.80
2017-05-23T17:20:06.182Z,23.80
2017-05-23T17:22:33.014Z,23.80
2017-05-23T17:24:59.855Z,23.70
2017-05-23T17:27:27.726Z,23.70
2017-05-23T17:29:54.558Z,23.60
2017-05-23T17:32:21.422Z,23.70
2017-05-23T17:34:50.302Z,23.50
2017-05-23T17:37:19.198Z,23.50
2017-05-23T17:39:46.030Z,23.40
2017-05-23T17:42:12.878Z,23.30
2017-05-23T17:44:39.658Z,23.30
2017-05-23T17:47:06.477Z,23.30
2017-05-23T17:49:33.290Z,23.10
2017-05-23T17:52:00.082Z,23.00
2017-05-23T17:54:26.903Z,23.20
2017-05-23T17:56:53.729Z,23.10
2017-05-23T17:59:20.556Z,23.00
2017-05-23T18:01:47.334Z,23.00
2017-05-23T18:04:14.145Z,23.00
2017-05-23T18:06:41.009Z,22.80
2017-05-23T18:09:07.821Z,22.80
2017-05-23T18:11:34.625Z,22.90
2017-05-23T18:14:01.402Z,22.90
2017-05-23T18:16:28.190Z,22.80
2017-05-23T18:18:54.982Z,22.80
2017-05-23T18:21:21.742Z,22.60
2017-05-23T18:23:48.562Z,22.50
2017-05-23T18:26:15.333Z,22.60
2017-05-23T18:28:42.149Z,22.70
2017-05-23T18:31:08.269Z,22.70
2017-05-23T18:33:35.161Z,22.50
2017-05-23T18:36:01.965Z,22.50
2017-05-23T18:38:28.750Z,22.60
2017-05-23T18:40:55.561Z,22.60
2017-05-23T18:43:22.341Z,22.50
2017-05-23T18:45:51.169Z,22.40
2017-05-23T18:48:17.966Z,22.20
2017-05-23T18:50:44.765Z,22.00
2017-05-23T18:53:11.572Z,22.10
2017-05-23T18:55:38.461Z,22.20
2017-05-23T18:58:20.233Z,22.20
2017-05-23T19:00:47.057Z,22.20
2017-05-23T19:03:13.849Z,22.10
2017-05-23T19:05:40.632Z,21.90
2017-05-23T19:08:07.444Z,21.80
2017-05-23T19:10:34.249Z,21.80
2017-05-23T19:13:01.037Z,21.70
2017-05-23T19:15:34.421Z,21.40
2017-05-23T19:18:04.777Z,21.20
2017-05-23T19:20:31.612Z,21.20
2017-05-23T19:22:58.436Z,21.20
2017-05-23T19:25:25.245Z,21.00
2017-05-23T19:27:52.073Z,20.90
2017-05-23T19:30:23.313Z,20.70
2017-05-23T19:32:50.121Z,20.80
2017-05-23T19:35:16.960Z,20.70
2017-05-23T19:37:43.836Z,20.70
2017-05-23T19:40:19.496Z,20.70
2017-05-23T19:42:47.408Z,20.70
2017-05-23T19:45:14.320Z,20.60
2017-05-23T19:47:41.192Z,20.50
2017-05-23T19:53:02.189Z,20.60
2017-05-23T19:55:30.988Z,20.70
2017-05-23T19:58:06.288Z,20.60
2017-05-23T20:00:33.096Z,20.50
2017-05-23T20:02:59.913Z,20.30
2017-05-23T20:05:26.723Z,20.40
2017-05-23T20:07:54.648Z,20.40
2017-05-23T20:10:21.456Z,20.50
2017-05-23T20:12:48.260Z,20.50
2017-05-23T20:15:15.120Z,20.50
2017-05-23T20:17:41.924Z,20.20
2017-05-23T20:20:08.737Z,20.30
2017-05-23T20:22:35.588Z,20.20
2017-05-23T20:25:02.401Z,20.10
2017-05-23T20:27:29.316Z,20.20
2017-05-23T20:29:56.145Z,20.20
2017-05-23T20:32:26.892Z,20.20
2017-05-23T20:35:06.011Z,20.20
2017-05-23T20:37:33.883Z,19.90
2017-05-23T20:40:01.760Z,19.90
2017-05-23T20:42:28.616Z,19.90
2017-05-23T20:44:56.468Z,19.90
2017-05-23T20:47:23.291Z,19.80
2017-05-23T20:49:54.616Z,19.90
2017-05-23T20:52:26.120Z,19.90
2017-05-23T20:54:54.003Z,19.90
2017-05-23T20:57:41.444Z,19.90
2017-05-23T21:00:13.967Z,19.80
2017-05-23T21:02:41.884Z,19.70
2017-05-23T21:05:17.383Z,19.70
2017-05-23T21:07:44.196Z,19.80
2017-05-23T21:10:21.039Z,19.80
2017-05-23T21:12:47.852Z,19.80
2017-05-23T21:15:14.651Z,19.70
2017-05-23T21:17:40.727Z,19.70
2017-05-23T21:20:07.563Z,19.70
2017-05-23T21:22:34.372Z,19.70
2017-05-23T21:25:01.196Z,19.60
2017-05-23T21:27:28.016Z,19.60
2017-05-23T21:29:58.016Z,19.50
2017-05-23T21:32:26.887Z,19.50
2017-05-23T21:34:55.924Z,19.40
2017-05-23T21:37:22.819Z,19.50
2017-05-23T21:39:55.296Z,19.40
2017-05-23T21:42:24.191Z,19.40
2017-05-23T21:44:50.304Z,19.40
2017-05-23T21:47:24.030Z,19.40
2017-05-23T21:49:51.897Z,19.30
2017-05-23T21:52:19.746Z,19.30
2017-05-23T21:54:58.984Z,19.30
2017-05-23T21:57:25.835Z,19.30
2017-05-23T21:59:52.642Z,19.20
2017-05-23T22:02:19.554Z,19.30
2017-05-23T22:04:50.243Z,19.30
2017-05-23T22:07:20.603Z,19.20
2017-05-23T22:09:51.903Z,19.20
2017-05-23T22:12:18.678Z,19.10
2017-05-23T22:14:46.499Z,19.20
2017-05-23T22:17:13.319Z,19.10
2017-05-23T22:19:39.382Z,19.10
2017-05-23T22:22:06.202Z,19.10
2017-05-23T22:24:33.007Z,19.10
2017-05-23T22:26:59.811Z,19.00
2017-05-23T22:29:26.674Z,19.00
2017-05-23T22:31:58.003Z,19.10
2017-05-23T22:34:27.089Z,19.10
2017-05-23T22:36:54.946Z,19.00
2017-05-23T22:39:21.787Z,18.90
2017-05-23T22:41:52.022Z,19.00
2017-05-23T22:44:18.875Z,19.00
2017-05-23T22:46:50.593Z,19.00
2017-05-23T22:49:20.043Z,18.90
2017-05-23T22:51:48.890Z,18.90
2017-05-23T22:54:19.682Z,18.90
2017-05-23T22:56:47.525Z,19.00
2017-05-23T22:59:16.474Z,18.90
2017-05-23T23:01:47.634Z,19.00
2017-05-23T23:04:16.522Z,18.90
2017-05-23T23:06:44.402Z,18.90
2017-05-23T23:09:11.259Z,18.90
2017-05-23T23:11:40.117Z,18.90
2017-05-23T23:14:07.999Z,18.90
2017-05-23T23:16:34.865Z,18.80
2017-05-23T23:19:01.653Z,18.80
2017-05-23T23:21:28.509Z,18.80
2017-05-23T23:23:57.454Z,18.80
2017-05-23T23:26:28.526Z,18.80
2017-05-23T23:28:55.418Z,18.80
2017-05-23T23:31:24.410Z,18.70
2017-05-23T23:33:57.382Z,18.80
2017-05-23T23:36:26.273Z,18.70
2017-05-23T23:38:58.318Z,18.70
2017-05-23T23:41:27.115Z,18.70
2017-05-23T23:43:59.889Z,18.70
2017-05-23T23:46:30.253Z,18.70
2017-05-23T23:49:00.661Z,18.70
2017-05-23T23:51:31.169Z,18.60
2017-05-23T23:53:58.014Z,18.60
2017-05-23T23:56:24.857Z,18.60
2017-05-23T23:58:52.737Z,18.60
